Time;durP1;ratioP1;P1;durP2;ratioP2;P2;SDS_P1;SDS_P2;PMS_P1;PMS_P2;Temp;Humidity;BMP_temperature;BMP_pressure;BME280_temperature;BME280_humidity;BME280_pressure;Samples;Min_cycle;Max_cycle;Signal;HPM_P1;HPM_P2
2021/10/24 00:01:39;;;;;;;2.87;2.63;;;3.60;98.00;;;;;;5094834;28;20452;-65
2021/10/24 00:04:07;;;;;;;2.80;1.50;;;3.60;98.00;;;;;;5094529;28;20453;-65
2021/10/24 00:06:34;;;;;;;7.20;1.73;;;3.60;98.00;;;;;;5094579;28;20513;-65
2021/10/24 00:09:01;;;;;;;1.20;1.10;;;3.50;98.00;;;;;;5094085;28;20495;-65
2021/10/24 00:11:28;;;;;;;4.70;2.23;;;3.30;98.00;;;;;;5094354;28;21008;-65
2021/10/24 00:13:55;;;;;;;1.20;1.10;;;3.30;98.00;;;;;;5094368;28;20561;-65
2021/10/24 00:16:22;;;;;;;4.13;1.87;;;3.30;98.00;;;;;;5093990;28;20464;-65
2021/10/24 00:18:49;;;;;;;1.37;1.20;;;3.30;98.00;;;;;;5093488;28;20456;-65
2021/10/24 00:21:18;;;;;;;1.60;1.43;;;3.30;98.00;;;;;;5094111;28;20855;-65
2021/10/24 00:23:45;;;;;;;1.30;1.23;;;3.30;98.00;;;;;;5093520;28;20484;-65
2021/10/24 00:26:12;;;;;;;1.30;1.23;;;3.30;98.00;;;;;;5093899;28;20536;-65
2021/10/24 00:28:39;;;;;;;1.20;1.00;;;3.20;98.00;;;;;;5093585;28;20513;-65
2021/10/24 00:31:06;;;;;;;1.60;1.40;;;3.00;98.00;;;;;;5094122;28;20459;-65
2021/10/24 00:33:34;;;;;;;1.50;1.47;;;3.00;98.00;;;;;;5093577;28;20612;-65
2021/10/24 00:36:01;;;;;;;1.30;1.20;;;3.00;98.00;;;;;;5093808;28;20468;-65
2021/10/24 00:38:30;;;;;;;1.40;1.33;;;2.90;98.00;;;;;;5092586;28;20501;-65
2021/10/24 00:40:57;;;;;;;1.20;1.10;;;2.90;98.00;;;;;;5093426;28;20850;-65
2021/10/24 00:43:24;;;;;;;1.20;1.00;;;2.80;98.00;;;;;;5093580;28;20452;-65
2021/10/24 00:45:51;;;;;;;1.20;1.00;;;3.00;98.00;;;;;;5093411;28;20452;-65
2021/10/24 00:48:18;;;;;;;1.20;1.10;;;3.10;98.00;;;;;;5093499;28;20807;-65
2021/10/24 00:50:45;;;;;;;1.30;1.20;;;3.10;98.00;;;;;;5093383;28;20881;-65
2021/10/24 00:53:14;;;;;;;1.30;1.17;;;3.10;98.00;;;;;;5093457;28;20951;-65
2021/10/24 00:55:45;;;;;;;1.30;1.10;;;3.00;98.00;;;;;;5093287;28;20488;-65
2021/10/24 00:58:15;;;;;;;1.30;1.17;;;2.80;98.00;;;;;;5093398;28;20460;-65
2021/10/24 01:00:45;;;;;;;1.20;1.20;;;2.90;98.00;;;;;;5093611;28;20452;-65
2021/10/24 01:03:13;;;;;;;1.20;1.17;;;2.90;98.00;;;;;;5091571;28;20513;-65
2021/10/24 01:05:41;;;;;;;1.93;1.10;;;2.80;98.00;;;;;;5093310;28;20458;-65
2021/10/24 01:08:10;;;;;;;2.63;1.70;;;2.80;98.00;;;;;;5093594;28;20467;-65
2021/10/24 01:10:38;;;;;;;1.20;1.10;;;2.80;98.00;;;;;;5093229;28;20456;-65
2021/10/24 01:13:07;;;;;;;1.73;1.17;;;2.80;98.00;;;;;;5093336;28;20855;-65
2021/10/24 01:15:34;;;;;;;1.87;1.67;;;2.90;98.00;;;;;;5093195;28;20536;-65
2021/10/24 01:18:03;;;;;;;1.20;1.00;;;3.00;98.00;;;;;;5093132;28;20452;-65
2021/10/24 01:20:32;;;;;;;1.20;1.00;;;3.10;98.00;;;;;;5092956;28;20452;-65
2021/10/24 01:23:00;;;;;;;1.30;1.10;;;3.20;98.00;;;;;;5093162;28;20499;-65
2021/10/24 01:25:27;;;;;;;2.23;1.40;;;3.20;98.00;;;;;;5091840;28;20869;-65
2021/10/24 01:27:54;;;;;;;1.20;1.00;;;3.20;98.00;;;;;;5092957;28;20460;-65
2021/10/24 01:30:22;;;;;;;1.30;1.20;;;3.20;98.00;;;;;;5092834;28;20475;-65
2021/10/24 01:32:49;;;;;;;1.60;1.40;;;3.00;98.00;;;;;;5092727;28;20808;-64
2021/10/24 01:35:16;;;;;;;1.20;1.10;;;2.70;98.00;;;;;;5092075;28;20480;-65
2021/10/24 01:37:45;;;;;;;1.20;1.00;;;2.70;98.00;;;;;;5092594;28;20540;-65
2021/10/24 01:40:15;;;;;;;2.03;1.37;;;2.70;98.00;;;;;;5092467;28;20509;-65
2021/10/24 01:42:55;;;;;;;1.50;1.20;;;2.80;98.00;;;;;;5092516;28;20452;-65
2021/10/24 01:45:24;;;;;;;1.30;1.20;;;2.90;98.00;;;;;;5092279;28;21163;-65
2021/10/24 01:47:52;;;;;;;1.20;1.00;;;2.90;98.00;;;;;;5092272;28;20444;-65
2021/10/24 01:50:20;;;;;;;1.20;1.00;;;3.00;98.00;;;;;;5092166;28;20483;-65
2021/10/24 01:52:47;;;;;;;1.30;1.20;;;3.10;98.00;;;;;;5092217;28;20488;-65
2021/10/24 01:55:16;;;;;;;2.00;1.30;;;2.90;98.00;;;;;;5092265;28;20484;-64
2021/10/24 01:57:46;;;;;;;1.20;1.20;;;2.70;98.00;;;;;;5092370;28;21031;-65
2021/10/24 02:00:14;;;;;;;1.73;1.20;;;2.60;98.00;;;;;;5092281;28;20796;-64
2021/10/24 02:02:41;;;;;;;1.33;1.10;;;2.60;98.00;;;;;;5092132;28;20509;-64
2021/10/24 02:05:09;;;;;;;1.40;1.37;;;2.60;98.00;;;;;;5092212;28;20456;-65
2021/10/24 02:07:36;;;;;;;1.20;1.00;;;2.60;98.00;;;;;;5091902;28;20448;-64
2021/10/24 02:10:05;;;;;;;5.10;1.90;;;2.70;98.00;;;;;;5091941;28;20556;-65
2021/10/24 02:12:34;;;;;;;1.20;1.20;;;2.60;98.00;;;;;;5092106;28;20823;-65
2021/10/24 02:15:04;;;;;;;2.90;1.63;;;2.50;98.00;;;;;;5091981;28;20880;-65
2021/10/24 02:17:31;;;;;;;1.43;1.23;;;2.60;98.00;;;;;;5088515;28;20873;-65
2021/10/24 02:19:58;;;;;;;1.60;1.17;;;2.70;98.00;;;;;;5091819;28;21084;-65
2021/10/24 02:22:25;;;;;;;1.20;1.00;;;2.70;98.00;;;;;;5092110;28;20452;-65
2021/10/24 02:24:53;;;;;;;1.20;1.00;;;2.70;98.00;;;;;;5091993;28;20456;-65
2021/10/24 02:27:20;;;;;;;2.03;1.30;;;2.60;98.00;;;;;;5092096;28;20480;-65
2021/10/24 02:29:48;;;;;;;1.50;1.43;;;2.50;98.00;;;;;;5091796;28;20490;-65
2021/10/24 02:32:19;;;;;;;1.57;1.20;;;2.50;98.00;;;;;;5091896;28;20505;-64
2021/10/24 02:34:46;;;;;;;1.30;1.10;;;2.50;98.00;;;;;;5090488;28;20563;-65
2021/10/24 02:37:16;;;;;;;2.33;1.10;;;2.40;98.00;;;;;;5090781;28;20510;-65
2021/10/24 02:39:43;;;;;;;1.40;1.30;;;2.50;98.00;;;;;;5091762;28;21007;-65
2021/10/24 02:42:11;;;;;;;2.13;1.50;;;2.50;98.00;;;;;;5092051;28;20491;-64
2021/10/24 02:44:38;;;;;;;1.40;1.17;;;2.50;98.00;;;;;;5091787;28;20487;-64
2021/10/24 02:47:06;;;;;;;2.80;1.20;;;2.40;98.00;;;;;;5095832;28;20455;-65
2021/10/24 02:49:33;;;;;;;4.07;2.50;;;2.40;98.00;;;;;;5095840;28;20548;-65
2021/10/24 02:52:01;;;;;;;1.70;1.47;;;2.40;98.00;;;;;;5095966;28;20456;-64
2021/10/24 02:54:29;;;;;;;1.40;1.20;;;2.40;98.00;;;;;;5095531;28;20872;-64
2021/10/24 02:56:57;;;;;;;1.20;1.00;;;2.40;98.00;;;;;;5095651;28;20848;-64
2021/10/24 02:59:24;;;;;;;1.20;1.10;;;2.40;98.00;;;;;;5095639;28;20483;-65
2021/10/24 03:01:51;;;;;;;1.20;1.00;;;2.40;98.00;;;;;;5095429;28;20498;-65
2021/10/24 03:04:19;;;;;;;1.20;1.00;;;2.50;98.00;;;;;;5095449;28;20448;-65
2021/10/24 03:06:46;;;;;;;1.20;1.10;;;2.60;98.00;;;;;;5095617;28;20498;-65
2021/10/24 03:09:14;;;;;;;1.40;1.10;;;2.70;98.00;;;;;;5095438;28;20464;-65
2021/10/24 03:11:42;;;;;;;1.20;0.90;;;2.70;98.00;;;;;;5095037;28;20942;-65
2021/10/24 03:14:09;;;;;;;2.60;1.10;;;2.50;98.00;;;;;;5095309;28;20504;-65
2021/10/24 03:16:36;;;;;;;1.20;1.00;;;2.40;98.00;;;;;;5095470;28;20511;-65
2021/10/24 03:19:04;;;;;;;1.50;1.20;;;2.30;98.00;;;;;;5095429;28;20601;-65
2021/10/24 03:21:33;;;;;;;1.30;1.10;;;2.50;98.00;;;;;;5095491;28;20926;-64
2021/10/24 03:24:00;;;;;;;1.20;1.00;;;2.30;98.00;;;;;;5095393;28;20490;-65
2021/10/24 03:26:28;;;;;;;1.20;1.00;;;2.30;98.00;;;;;;5095395;28;20946;-64
2021/10/24 03:28:55;;;;;;;1.20;1.00;;;2.20;98.00;;;;;;5095063;28;20508;-65
2021/10/24 03:31:22;;;;;;;1.50;1.30;;;2.30;98.00;;;;;;5094038;28;20510;-65
2021/10/24 03:33:49;;;;;;;1.20;1.00;;;2.30;98.00;;;;;;5095239;28;20484;-65
2021/10/24 03:36:16;;;;;;;1.30;1.00;;;2.30;98.00;;;;;;5095021;28;20487;-65
2021/10/24 03:38:45;;;;;;;2.03;1.60;;;2.30;98.00;;;;;;5094751;28;20776;-65
2021/10/24 03:41:14;;;;;;;1.93;1.30;;;2.30;98.00;;;;;;5094592;28;20509;-65
2021/10/24 03:43:41;;;;;;;1.20;1.00;;;2.30;98.00;;;;;;5094753;28;20444;-65
2021/10/24 03:46:08;;;;;;;1.50;1.30;;;2.30;98.00;;;;;;5094822;28;20949;-65
2021/10/24 03:48:35;;;;;;;1.30;1.10;;;2.30;98.00;;;;;;5094727;28;20495;-65
2021/10/24 03:51:03;;;;;;;1.70;1.17;;;2.30;98.00;;;;;;5094923;28;20556;-64
2021/10/24 03:53:30;;;;;;;2.73;1.20;;;2.50;98.00;;;;;;5093509;28;20484;-65
2021/10/24 03:55:58;;;;;;;1.20;1.20;;;2.60;98.00;;;;;;5094434;28;20570;-65
2021/10/24 03:58:26;;;;;;;1.30;1.20;;;2.70;98.00;;;;;;5093833;28;20537;-64
2021/10/24 04:00:53;;;;;;;2.70;1.77;;;2.70;98.00;;;;;;5094029;28;20796;-64
2021/10/24 04:03:20;;;;;;;1.70;1.10;;;2.50;98.00;;;;;;5093749;28;20513;-65
2021/10/24 04:05:49;;;;;;;2.13;1.77;;;2.40;98.00;;;;;;5093504;28;20521;-65
2021/10/24 04:08:16;;;;;;;2.17;1.67;;;2.40;98.00;;;;;;5094262;28;20954;-65
2021/10/24 04:10:44;;;;;;;1.23;1.10;;;2.30;98.00;;;;;;5094672;28;20447;-65
2021/10/24 04:13:12;;;;;;;1.20;1.00;;;2.30;98.00;;;;;;5094376;28;20520;-65
2021/10/24 04:15:39;;;;;;;1.20;1.00;;;2.30;98.00;;;;;;5094274;28;21032;-65
2021/10/24 04:18:06;;;;;;;1.20;1.00;;;2.50;98.00;;;;;;5093816;28;20488;-64
2021/10/24 04:20:37;;;;;;;1.20;1.10;;;2.40;98.00;;;;;;5094207;28;20460;-65
2021/10/24 04:23:05;;;;;;;1.20;1.00;;;2.30;98.00;;;;;;5094069;28;20463;-64
2021/10/24 04:25:32;;;;;;;2.03;1.30;;;2.30;98.00;;;;;;5092670;28;20456;-65
2021/10/24 04:27:59;;;;;;;1.20;1.10;;;2.30;98.00;;;;;;5093903;28;20952;-65
2021/10/24 04:30:28;;;;;;;1.30;1.10;;;2.40;98.00;;;;;;5093868;28;20485;-65
2021/10/24 04:32:55;;;;;;;1.20;1.00;;;2.20;98.00;;;;;;5093980;28;20889;-65
2021/10/24 04:35:21;;;;;;;1.40;1.30;;;2.30;98.00;;;;;;5093571;28;20964;-65
2021/10/24 04:37:49;;;;;;;1.20;1.10;;;2.30;98.00;;;;;;5093886;28;21012;-64
2021/10/24 04:40:16;;;;;;;1.20;0.90;;;2.50;98.00;;;;;;5093652;28;20452;-64
2021/10/24 04:42:43;;;;;;;1.20;1.00;;;2.60;98.00;;;;;;5093489;28;20487;-65
2021/10/24 04:45:11;;;;;;;5.93;1.73;;;2.50;98.00;;;;;;5093859;28;20466;-65
2021/10/24 04:47:40;;;;;;;1.20;1.10;;;2.30;98.00;;;;;;5093661;28;20507;-64
2021/10/24 04:50:08;;;;;;;1.40;1.10;;;2.30;98.00;;;;;;5093283;28;20456;-65
2021/10/24 04:52:37;;;;;;;1.40;1.27;;;2.20;98.00;;;;;;5093522;28;20466;-64
2021/10/24 04:55:04;;;;;;;1.20;1.07;;;2.10;98.00;;;;;;5093239;28;20964;-65
2021/10/24 04:57:31;;;;;;;1.20;1.20;;;2.30;98.00;;;;;;5093424;28;20978;-65
2021/10/24 04:59:59;;;;;;;1.50;1.37;;;2.30;98.00;;;;;;5093297;28;20459;-65
2021/10/24 05:02:26;;;;;;;1.40;1.30;;;2.30;98.00;;;;;;5092216;28;20491;-65
2021/10/24 05:04:54;;;;;;;1.30;1.20;;;2.30;98.00;;;;;;5093232;28;20452;-65
2021/10/24 05:07:22;;;;;;;2.60;1.63;;;2.40;98.00;;;;;;5093047;28;20492;-65
2021/10/24 05:09:49;;;;;;;1.77;1.17;;;2.40;98.00;;;;;;5092029;28;20459;-65
2021/10/24 05:12:16;;;;;;;1.20;1.00;;;2.60;98.00;;;;;;5093203;28;21108;-65
2021/10/24 05:14:43;;;;;;;1.20;1.00;;;2.70;98.00;;;;;;5091949;28;20487;-65
2021/10/24 05:17:10;;;;;;;1.20;1.00;;;2.60;98.00;;;;;;5091742;28;20534;-65
2021/10/24 05:19:38;;;;;;;2.70;1.30;;;2.70;98.00;;;;;;5093205;28;20495;-65
2021/10/24 05:22:06;;;;;;;1.20;1.00;;;2.60;98.00;;;;;;5092704;28;20490;-65
2021/10/24 05:24:33;;;;;;;1.30;1.30;;;2.60;98.00;;;;;;5093116;28;20822;-65
2021/10/24 05:27:00;;;;;;;1.20;1.00;;;2.60;98.00;;;;;;5093143;28;20509;-65
2021/10/24 05:29:27;;;;;;;1.20;1.10;;;2.70;98.00;;;;;;5092927;28;20460;-64
2021/10/24 05:31:54;;;;;;;1.20;1.00;;;2.70;98.00;;;;;;5093219;28;20452;-64
2021/10/24 05:34:21;;;;;;;1.60;1.30;;;2.70;98.00;;;;;;5092553;28;20553;-65
2021/10/24 05:36:48;;;;;;;1.20;1.10;;;2.50;98.00;;;;;;5092858;28;21148;-65
2021/10/24 05:39:17;;;;;;;1.20;1.00;;;2.30;98.00;;;;;;5092505;28;20463;-65
2021/10/24 05:41:44;;;;;;;1.20;1.00;;;2.40;98.00;;;;;;5092679;28;21003;-65
2021/10/24 05:44:12;;;;;;;1.20;1.10;;;2.40;98.00;;;;;;5092599;28;20451;-65
2021/10/24 05:46:40;;;;;;;1.97;1.63;;;2.40;98.00;;;;;;5092328;28;20448;-65
2021/10/24 05:49:08;;;;;;;1.20;1.10;;;2.50;98.00;;;;;;5090786;28;20498;-64
2021/10/24 05:51:39;;;;;;;1.20;1.00;;;2.40;98.00;;;;;;5092450;28;20535;-64
2021/10/24 05:54:06;;;;;;;1.40;1.30;;;2.30;98.00;;;;;;5092353;28;20460;-66
2021/10/24 05:56:35;;;;;;;1.20;1.00;;;2.40;98.00;;;;;;5092066;28;20521;-65
2021/10/24 05:59:02;;;;;;;1.20;1.00;;;2.50;98.00;;;;;;5092214;28;20509;-65
2021/10/24 06:01:29;;;;;;;1.30;1.10;;;2.50;98.00;;;;;;5092261;28;20451;-65
2021/10/24 06:03:56;;;;;;;1.40;1.20;;;2.40;98.00;;;;;;5092045;28;20495;-65
2021/10/24 06:06:23;;;;;;;1.20;1.00;;;2.30;98.00;;;;;;5092067;28;20487;-65
2021/10/24 06:08:50;;;;;;;1.20;1.00;;;2.40;98.00;;;;;;5092164;28;20456;-65
2021/10/24 06:11:25;;;;;;;1.20;1.00;;;2.30;98.00;;;;;;5091737;28;20455;-65
2021/10/24 06:13:55;;;;;;;1.87;1.20;;;2.30;98.00;;;;;;5092132;28;20803;-65
2021/10/24 06:16:22;;;;;;;1.30;1.10;;;2.20;98.00;;;;;;5091780;28;20570;-65
2021/10/24 06:18:50;;;;;;;1.20;1.00;;;2.10;98.00;;;;;;5091799;28;20509;-65
2021/10/24 06:21:17;;;;;;;1.30;1.10;;;2.20;98.00;;;;;;5091366;28;20487;-65
2021/10/24 06:23:45;;;;;;;1.20;1.00;;;2.20;98.00;;;;;;5092018;28;20541;-65
2021/10/24 06:26:13;;;;;;;1.20;1.00;;;2.10;98.00;;;;;;5092052;28;20464;-65
2021/10/24 06:28:40;;;;;;;1.20;1.00;;;2.10;98.00;;;;;;5091738;28;20484;-65
2021/10/24 06:31:09;;;;;;;1.20;1.00;;;2.10;98.00;;;;;;5092086;28;20517;-65
2021/10/24 06:33:37;;;;;;;1.40;1.20;;;2.30;98.00;;;;;;5091865;28;20470;-65
2021/10/24 06:36:05;;;;;;;1.20;1.10;;;2.30;98.00;;;;;;5092148;28;20536;-65
2021/10/24 06:38:32;;;;;;;1.20;1.10;;;2.40;98.00;;;;;;5092083;28;20452;-65
2021/10/24 06:40:59;;;;;;;1.20;1.10;;;2.30;98.00;;;;;;5091884;28;20459;-65
2021/10/24 06:43:26;;;;;;;1.20;1.00;;;2.40;98.00;;;;;;5091815;28;20508;-64
2021/10/24 06:45:53;;;;;;;1.40;1.10;;;2.30;98.00;;;;;;5092027;28;20455;-64
2021/10/24 06:48:21;;;;;;;1.20;1.00;;;2.40;98.00;;;;;;5091976;28;20516;-65
2021/10/24 06:50:50;;;;;;;1.30;1.10;;;2.30;98.00;;;;;;5092066;28;20463;-65
2021/10/24 06:53:17;;;;;;;1.30;1.10;;;2.20;98.00;;;;;;5091812;28;20476;-64
2021/10/24 06:55:44;;;;;;;1.20;1.20;;;2.20;98.00;;;;;;5091713;28;20520;-65
2021/10/24 06:58:11;;;;;;;1.57;1.30;;;2.20;98.00;;;;;;5091836;28;20448;-65
2021/10/24 07:00:38;;;;;;;1.20;1.10;;;2.30;98.00;;;;;;5091661;28;20544;-64
2021/10/24 07:03:05;;;;;;;1.30;1.20;;;2.30;98.00;;;;;;5091533;28;20512;-64
2021/10/24 07:05:34;;;;;;;1.53;1.20;;;2.40;98.00;;;;;;5091447;28;20444;-65
2021/10/24 07:08:01;;;;;;;1.20;1.00;;;2.30;98.00;;;;;;5091436;28;20521;-64
2021/10/24 07:10:28;;;;;;;1.77;1.40;;;2.50;98.00;;;;;;5091162;28;20484;-65
2021/10/24 07:12:56;;;;;;;1.20;1.00;;;2.50;98.00;;;;;;5091284;28;20481;-65
2021/10/24 07:15:24;;;;;;;1.20;1.20;;;2.50;98.00;;;;;;5091260;28;20768;-65
2021/10/24 07:17:52;;;;;;;2.80;1.20;;;2.50;98.00;;;;;;5090981;28;20522;-65
2021/10/24 07:20:20;;;;;;;1.50;1.07;;;2.50;98.00;;;;;;5091267;28;20446;-65
2021/10/24 07:22:48;;;;;;;1.20;1.00;;;2.70;98.00;;;;;;5091238;28;20946;-65
2021/10/24 07:25:18;;;;;;;1.20;1.20;;;2.60;98.00;;;;;;5091320;28;20491;-66
2021/10/24 07:27:45;;;;;;;1.20;1.00;;;2.60;98.00;;;;;;5091237;28;20460;-65
2021/10/24 07:30:13;;;;;;;1.73;1.10;;;2.70;98.00;;;;;;5089908;28;20472;-65
2021/10/24 07:32:40;;;;;;;1.20;1.03;;;2.70;98.00;;;;;;5092636;28;20493;-64
2021/10/24 07:35:08;;;;;;;1.70;1.10;;;2.70;98.00;;;;;;5095004;28;20495;-64
2021/10/24 07:37:35;;;;;;;1.30;1.10;;;2.70;98.00;;;;;;5094974;28;20556;-64
2021/10/24 07:40:04;;;;;;;1.40;1.30;;;3.00;98.00;;;;;;5093290;28;20976;-65
2021/10/24 07:42:31;;;;;;;1.20;1.00;;;3.00;98.00;;;;;;5095153;28;20475;-65
2021/10/24 07:44:59;;;;;;;1.40;1.20;;;3.10;98.00;;;;;;5094881;28;20495;-64
2021/10/24 07:47:30;;;;;;;1.20;1.00;;;3.10;98.00;;;;;;5094716;28;20498;-65
2021/10/24 07:49:57;;;;;;;1.50;1.37;;;3.20;98.00;;;;;;5094874;28;20459;-65
2021/10/24 07:52:24;;;;;;;1.20;1.00;;;3.40;98.00;;;;;;5094683;28;20517;-65
2021/10/24 07:54:51;;;;;;;2.53;1.10;;;3.40;98.00;;;;;;5094740;28;20460;-66
2021/10/24 07:57:21;;;;;;;1.50;1.17;;;3.50;98.00;;;;;;5094736;28;20528;-66
2021/10/24 07:59:49;;;;;;;1.20;1.00;;;3.80;98.00;;;;;;5094635;28;20938;-66
2021/10/24 08:02:18;;;;;;;1.60;1.53;;;3.90;98.00;;;;;;5094846;28;20467;-66
2021/10/24 08:04:45;;;;;;;1.20;1.00;;;4.00;98.00;;;;;;5094583;28;20883;-66
2021/10/24 08:07:13;;;;;;;1.47;1.27;;;4.10;98.00;;;;;;5094619;28;20505;-66
2021/10/24 08:09:40;;;;;;;1.20;1.10;;;4.10;98.00;;;;;;5094425;28;20977;-65
2021/10/24 08:12:09;;;;;;;1.30;1.10;;;4.30;98.00;;;;;;5094598;28;20467;-65
2021/10/24 08:14:38;;;;;;;1.60;1.20;;;4.40;98.00;;;;;;5094590;28;20460;-66
2021/10/24 08:17:06;;;;;;;1.50;1.10;;;4.50;98.00;;;;;;5094329;28;20516;-65
2021/10/24 08:19:34;;;;;;;1.30;1.27;;;4.70;98.00;;;;;;5094191;28;20456;-66
2021/10/24 08:22:01;;;;;;;2.53;1.53;;;4.70;98.00;;;;;;5094179;28;20518;-66
2021/10/24 08:24:29;;;;;;;1.30;1.23;;;4.80;98.00;;;;;;5093921;28;20513;-65
2021/10/24 08:26:56;;;;;;;2.03;1.50;;;4.90;98.00;;;;;;5094200;28;20467;-66
2021/10/24 08:29:23;;;;;;;1.40;1.10;;;5.00;98.00;;;;;;5093753;28;20475;-66
2021/10/24 08:31:53;;;;;;;1.83;1.23;;;5.10;98.00;;;;;;5094341;28;20455;-66
2021/10/24 08:34:21;;;;;;;1.50;1.13;;;5.30;98.00;;;;;;5092813;28;20450;-66
2021/10/24 08:36:49;;;;;;;1.30;1.17;;;5.50;98.00;;;;;;5102503;28;20492;-66
2021/10/24 08:39:17;;;;;;;1.20;1.13;;;5.70;98.00;;;;;;5097081;28;21000;-65
2021/10/24 08:41:47;;;;;;;1.20;1.00;;;5.90;98.00;;;;;;5097227;28;20958;-66
2021/10/24 08:44:16;;;;;;;1.30;1.23;;;6.10;98.00;;;;;;5095879;28;20460;-64
2021/10/24 08:46:43;;;;;;;1.30;1.30;;;6.20;98.00;;;;;;5106226;28;20546;-64
2021/10/24 08:49:11;;;;;;;1.37;1.10;;;6.30;98.00;;;;;;5102512;28;20539;-64
2021/10/24 08:51:38;;;;;;;1.30;1.00;;;6.40;98.00;;;;;;5097039;28;21198;-65
2021/10/24 08:54:08;;;;;;;1.40;1.20;;;6.50;98.00;;;;;;5104689;28;20497;-65
2021/10/24 08:56:36;;;;;;;1.60;1.10;;;6.80;98.00;;;;;;5109639;28;20547;-65
2021/10/24 08:59:04;;;;;;;1.60;1.33;;;7.00;98.00;;;;;;5100347;28;20456;-65
2021/10/24 09:01:32;;;;;;;1.93;1.53;;;7.20;98.00;;;;;;5109065;28;20903;-65
2021/10/24 09:04:04;;;;;;;1.20;1.00;;;7.40;98.00;;;;;;5100591;28;20460;-65
2021/10/24 09:06:55;;;;;;;1.20;1.07;;;7.50;98.00;;;;;;5105044;28;20480;-65
2021/10/24 09:09:34;;;;;;;1.20;1.20;;;7.60;98.00;;;;;;5107610;28;20947;-65
2021/10/24 09:12:05;;;;;;;2.07;1.50;;;7.80;98.00;;;;;;5108716;28;20567;-66
2021/10/24 09:14:43;;;;;;;3.50;1.70;;;7.90;98.00;;;;;;5092646;28;20467;-66
2021/10/24 09:17:12;;;;;;;1.50;1.43;;;8.10;98.00;;;;;;5084990;28;20492;-65
2021/10/24 09:19:41;;;;;;;2.67;1.40;;;8.40;98.00;;;;;;5100814;28;20926;-63
2021/10/24 09:22:17;;;;;;;2.20;1.97;;;8.70;98.00;;;;;;5099641;28;20969;-65
2021/10/24 09:25:06;;;;;;;1.30;1.10;;;8.90;98.00;;;;;;5108814;28;21060;-65
2021/10/24 09:27:40;;;;;;;1.77;1.27;;;9.20;98.00;;;;;;5095926;28;20999;-64
2021/10/24 09:30:09;;;;;;;1.20;1.10;;;9.50;98.00;;;;;;5097248;28;20526;-64
2021/10/24 09:33:04;;;;;;;1.60;1.30;;;9.70;98.00;;;;;;5109404;28;20481;-65
2021/10/24 09:35:33;;;;;;;2.23;1.30;;;10.00;98.00;;;;;;5083695;28;20517;-66
2021/10/24 09:38:03;;;;;;;1.57;1.53;;;10.20;98.00;;;;;;5091114;28;20493;-66
2021/10/24 09:40:32;;;;;;;1.60;1.30;;;10.30;98.00;;;;;;5099773;28;20491;-66
2021/10/24 09:43:16;;;;;;;1.20;1.00;;;10.50;98.00;;;;;;5091449;28;20513;-66
2021/10/24 09:45:45;;;;;;;1.30;1.10;;;10.70;98.00;;;;;;5107196;28;20448;-66
2021/10/24 09:48:16;;;;;;;1.20;1.00;;;11.00;98.00;;;;;;5092731;28;20908;-66
2021/10/24 09:50:50;;;;;;;1.30;1.30;;;11.30;98.00;;;;;;5095653;28;20551;-66
2021/10/24 09:53:21;;;;;;;1.20;1.20;;;11.40;98.00;;;;;;5091927;28;20844;-66
2021/10/24 09:56:02;;;;;;;1.33;1.13;;;11.60;98.00;;;;;;5091264;28;20472;-66
2021/10/24 09:58:31;;;;;;;1.30;1.20;;;11.70;98.00;;;;;;5091373;28;20512;-66
2021/10/24 10:00:59;;;;;;;1.73;1.40;;;11.90;98.00;;;;;;5089985;28;20519;-65
2021/10/24 10:03:28;;;;;;;1.30;1.30;;;12.10;98.00;;;;;;5090645;28;20456;-66
2021/10/24 10:05:55;;;;;;;1.77;1.47;;;12.30;98.00;;;;;;5105150;28;20516;-65
2021/10/24 10:08:24;;;;;;;4.03;1.47;;;12.40;98.00;;;;;;5108061;28;20456;-65
2021/10/24 10:10:55;;;;;;;1.53;1.30;;;12.50;98.00;;;;;;5093772;28;20452;-66
2021/10/24 10:13:26;;;;;;;1.20;1.10;;;12.60;98.00;;;;;;5092075;28;20513;-66
2021/10/24 10:15:54;;;;;;;1.80;1.40;;;12.70;98.00;;;;;;5091828;28;20458;-66
2021/10/24 10:18:21;;;;;;;1.37;1.23;;;12.80;98.00;;;;;;5091804;28;21106;-65
2021/10/24 10:20:51;;;;;;;1.50;1.43;;;12.80;98.00;;;;;;5091980;28;20461;-66
2021/10/24 10:23:23;;;;;;;1.77;1.47;;;12.90;98.00;;;;;;5092015;28;20496;-66
2021/10/24 10:25:52;;;;;;;1.80;1.30;;;13.10;98.00;;;;;;5091923;28;20451;-66
2021/10/24 10:28:46;;;;;;;1.30;1.07;;;13.20;98.00;;;;;;5091854;28;20508;-66
2021/10/24 10:31:14;;;;;;;5.13;1.30;;;13.40;98.00;;;;;;5090836;28;20453;-66
2021/10/24 10:33:42;;;;;;;1.47;1.20;;;13.70;97.20;;;;;;5091902;28;20454;-66
2021/10/24 10:36:09;;;;;;;1.50;1.37;;;13.90;97.00;;;;;;5091619;28;20456;-66
2021/10/24 10:38:41;;;;;;;1.60;1.20;;;14.10;94.70;;;;;;5091734;28;20522;-66
2021/10/24 10:41:12;;;;;;;1.67;1.37;;;14.20;94.90;;;;;;5091830;28;20478;-66
2021/10/24 10:43:39;;;;;;;1.30;1.20;;;14.40;94.70;;;;;;5091645;28;20808;-67
2021/10/24 10:46:08;;;;;;;1.40;1.40;;;14.60;94.20;;;;;;5091900;28;20887;-66
2021/10/24 10:48:42;;;;;;;1.43;1.40;;;14.80;92.70;;;;;;5091534;28;20482;-66
2021/10/24 10:51:18;;;;;;;1.50;1.40;;;15.00;91.40;;;;;;5091975;28;20456;-66
2021/10/24 10:54:04;;;;;;;1.63;1.40;;;15.20;91.60;;;;;;5090726;28;20517;-66
2021/10/24 10:56:47;;;;;;;1.20;1.13;;;15.40;90.10;;;;;;5092013;28;20467;-66
2021/10/24 10:59:17;;;;;;;1.30;1.20;;;15.70;89.60;;;;;;5091637;28;20488;-66
2021/10/24 11:01:44;;;;;;;1.50;1.13;;;16.00;89.50;;;;;;5091496;28;20460;-66
2021/10/24 11:04:17;;;;;;;2.17;1.97;;;16.20;89.20;;;;;;5091359;28;20514;-66
2021/10/24 11:06:59;;;;;;;3.00;1.50;;;16.40;87.70;;;;;;5093021;28;20553;-66
2021/10/24 11:09:43;;;;;;;1.90;1.50;;;16.70;86.20;;;;;;5095382;28;20470;-66
2021/10/24 11:12:50;;;;;;;1.77;1.60;;;16.90;85.30;;;;;;5095449;28;20457;-66
2021/10/24 11:15:31;;;;;;;1.70;1.30;;;17.20;84.10;;;;;;5095381;28;20982;-66
2021/10/24 11:18:02;;;;;;;2.80;1.47;;;17.40;84.40;;;;;;5095357;28;20590;-66
2021/10/24 11:20:49;;;;;;;1.27;1.20;;;17.60;83.60;;;;;;5095206;28;20469;-65
2021/10/24 11:23:19;;;;;;;1.40;1.40;;;17.90;82.30;;;;;;5091838;28;20454;-65
2021/10/24 11:25:47;;;;;;;1.40;1.30;;;18.10;82.50;;;;;;5094862;28;20470;-65
2021/10/24 11:28:17;;;;;;;1.30;1.30;;;18.30;80.90;;;;;;5094858;28;20566;-65
2021/10/24 11:30:48;;;;;;;2.27;1.50;;;18.40;81.10;;;;;;5095046;28;20472;-65
2021/10/24 11:33:15;;;;;;;1.80;1.40;;;18.40;79.70;;;;;;5094855;28;20460;-65
2021/10/24 11:35:43;;;;;;;2.17;1.40;;;18.60;79.70;;;;;;5094883;28;20451;-65
2021/10/24 11:38:14;;;;;;;1.50;1.20;;;18.50;79.00;;;;;;5095063;28;20522;-65
2021/10/24 11:40:43;;;;;;;1.20;1.00;;;18.60;79.30;;;;;;5094767;28;20792;-65
2021/10/24 11:43:17;;;;;;;1.60;1.50;;;18.40;79.90;;;;;;5094871;28;20913;-65
2021/10/24 11:45:46;;;;;;;1.83;1.30;;;18.40;80.40;;;;;;5094752;28;21021;-65
2021/10/24 11:48:21;;;;;;;1.60;1.30;;;18.40;81.00;;;;;;5095168;28;20478;-66
2021/10/24 11:50:58;;;;;;;1.80;1.50;;;18.40;79.80;;;;;;5094367;28;20451;-67
2021/10/24 11:53:29;;;;;;;1.53;1.37;;;18.30;81.20;;;;;;5094916;28;21001;-68
2021/10/24 11:55:59;;;;;;;1.33;1.23;;;18.20;79.80;;;;;;5094700;28;20462;-68
2021/10/24 11:58:48;;;;;;;1.20;1.17;;;18.10;81.60;;;;;;5094754;28;21075;-65
2021/10/24 12:01:17;;;;;;;1.77;1.60;;;18.10;81.10;;;;;;5094777;28;20466;-65
2021/10/24 12:03:54;;;;;;;2.43;1.70;;;18.20;81.40;;;;;;5094656;28;20505;-66
2021/10/24 12:06:53;;;;;;;1.30;1.30;;;18.30;82.90;;;;;;5094758;28;20918;-66
2021/10/24 12:09:52;;;;;;;1.33;1.20;;;18.30;81.80;;;;;;5094630;28;20460;-64
2021/10/24 12:12:24;;;;;;;1.40;1.20;;;18.00;82.30;;;;;;5094325;28;20463;-65
2021/10/24 12:15:10;;;;;;;1.43;1.30;;;17.90;83.60;;;;;;5094448;28;20945;-65
2021/10/24 12:17:42;;;;;;;1.60;1.27;;;17.80;83.60;;;;;;5094056;28;20558;-66
2021/10/24 12:20:14;;;;;;;1.77;1.50;;;17.60;84.30;;;;;;5094649;28;20455;-66
2021/10/24 12:22:42;;;;;;;1.40;1.30;;;17.40;84.60;;;;;;5093156;28;20460;-66
2021/10/24 12:25:13;;;;;;;2.07;1.43;;;17.30;83.70;;;;;;5094445;28;20460;-66
2021/10/24 12:27:43;;;;;;;2.33;1.47;;;17.30;83.10;;;;;;5094166;28;20859;-66
2021/10/24 12:30:13;;;;;;;1.20;1.13;;;17.40;83.60;;;;;;5094539;28;20464;-66
2021/10/24 12:32:55;;;;;;;1.60;1.20;;;17.40;84.00;;;;;;5093940;28;20452;-66
2021/10/24 12:35:22;;;;;;;1.27;1.20;;;17.50;83.00;;;;;;5093833;28;20546;-66
2021/10/24 12:37:57;;;;;;;1.53;1.40;;;17.40;83.80;;;;;;5093672;28;20516;-66
2021/10/24 12:40:27;;;;;;;1.40;1.33;;;17.40;83.60;;;;;;5093756;28;20484;-66
2021/10/24 12:43:07;;;;;;;2.67;1.70;;;17.50;82.90;;;;;;5093899;28;20531;-66
2021/10/24 12:45:58;;;;;;;1.90;1.43;;;17.50;83.00;;;;;;5092824;28;20520;-66
2021/10/24 12:48:41;;;;;;;1.40;1.40;;;17.50;83.50;;;;;;5092845;28;20464;-66
2021/10/24 12:51:23;;;;;;;1.30;1.30;;;17.60;83.70;;;;;;5092711;28;20455;-66
2021/10/24 12:53:50;;;;;;;2.63;1.60;;;17.70;83.60;;;;;;5092838;28;20475;-66
2021/10/24 12:56:17;;;;;;;2.20;1.70;;;17.80;83.70;;;;;;5092908;28;20464;-66
2021/10/24 12:58:44;;;;;;;2.07;1.40;;;18.00;83.00;;;;;;5093545;28;20479;-66
2021/10/24 13:01:20;;;;;;;2.47;1.50;;;18.10;81.90;;;;;;5093634;28;20456;-66
2021/10/24 13:03:49;;;;;;;1.73;1.50;;;18.20;82.30;;;;;;5093459;28;20455;-66
2021/10/24 13:06:16;;;;;;;2.43;1.30;;;18.20;81.20;;;;;;5092542;28;20867;-66
2021/10/24 13:08:43;;;;;;;1.83;1.50;;;18.20;81.30;;;;;;5093230;28;21074;-66